sensor_id;sensor_type;location;lat;lon;timestamp;P1;durP1;ratioP1;P2;durP2;ratioP2
32786;SDS011;19139;49.372;8.580;2023-05-10T00:01:14;1.87;;;1.77;;
32786;SDS011;19139;49.372;8.580;2023-05-10T00:03:40;2.00;;;1.90;;
32786;SDS011;19139;49.372;8.580;2023-05-10T00:06:07;1.70;;;1.60;;
32786;SDS011;19139;49.372;8.580;2023-05-10T00:08:34;1.43;;;1.33;;
32786;SDS011;19139;49.372;8.580;2023-05-10T00:11:00;1.80;;;1.70;;
32786;SDS011;19139;49.372;8.580;2023-05-10T00:13:32;1.83;;;1.73;;
32786;SDS011;19139;49.372;8.580;2023-05-10T00:16:04;2.03;;;1.90;;
32786;SDS011;19139;49.372;8.580;2023-05-10T00:18:36;1.80;;;1.70;;
32786;SDS011;19139;49.372;8.580;2023-05-10T00:21:02;2.07;;;1.57;;
32786;SDS011;19139;49.372;8.580;2023-05-10T00:23:29;1.63;;;1.53;;
32786;SDS011;19139;49.372;8.580;2023-05-10T00:25:56;1.93;;;1.83;;
32786;SDS011;19139;49.372;8.580;2023-05-10T00:28:22;1.70;;;1.60;;
32786;SDS011;19139;49.372;8.580;2023-05-10T00:30:49;1.67;;;1.57;;
32786;SDS011;19139;49.372;8.580;2023-05-10T00:33:15;1.70;;;1.60;;
32786;SDS011;19139;49.372;8.580;2023-05-10T00:35:42;1.70;;;1.57;;
32786;SDS011;19139;49.372;8.580;2023-05-10T00:38:09;2.40;;;1.67;;
32786;SDS011;19139;49.372;8.580;2023-05-10T00:40:40;1.63;;;1.40;;
32786;SDS011;19139;49.372;8.580;2023-05-10T00:43:12;1.67;;;1.57;;
32786;SDS011;19139;49.372;8.580;2023-05-10T00:45:39;1.80;;;1.70;;
32786;SDS011;19139;49.372;8.580;2023-05-10T00:48:06;2.00;;;1.80;;
32786;SDS011;19139;49.372;8.580;2023-05-10T00:50:37;1.87;;;1.60;;
32786;SDS011;19139;49.372;8.580;2023-05-10T00:53:06;2.50;;;1.67;;
32786;SDS011;19139;49.372;8.580;2023-05-10T00:55:39;1.77;;;1.50;;
32786;SDS011;19139;49.372;8.580;2023-05-10T00:58:10;1.90;;;1.80;;
32786;SDS011;19139;49.372;8.580;2023-05-10T01:00:42;1.87;;;1.67;;
32786;SDS011;19139;49.372;8.580;2023-05-10T01:03:10;1.90;;;1.80;;
32786;SDS011;19139;49.372;8.580;2023-05-10T01:05:37;1.73;;;1.63;;
32786;SDS011;19139;49.372;8.580;2023-05-10T01:08:04;1.73;;;1.60;;
32786;SDS011;19139;49.372;8.580;2023-05-10T01:10:31;1.37;;;1.27;;
32786;SDS011;19139;49.372;8.580;2023-05-10T01:12:58;1.40;;;1.30;;
32786;SDS011;19139;49.372;8.580;2023-05-10T01:15:25;1.50;;;1.33;;
32786;SDS011;19139;49.372;8.580;2023-05-10T01:17:52;1.50;;;1.40;;
32786;SDS011;19139;49.372;8.580;2023-05-10T01:20:20;1.40;;;1.30;;
32786;SDS011;19139;49.372;8.580;2023-05-10T01:25:58;1.73;;;1.63;;
32786;SDS011;19139;49.372;8.580;2023-05-10T01:34:09;1.60;;;1.50;;
32786;SDS011;19139;49.372;8.580;2023-05-10T01:36:43;1.40;;;1.30;;
32786;SDS011;19139;49.372;8.580;2023-05-10T01:42:30;1.60;;;1.50;;
32786;SDS011;19139;49.372;8.580;2023-05-10T01:48:26;1.50;;;1.40;;
32786;SDS011;19139;49.372;8.580;2023-05-10T01:50:54;1.53;;;1.43;;
32786;SDS011;19139;49.372;8.580;2023-05-10T01:53:22;2.27;;;1.70;;
32786;SDS011;19139;49.372;8.580;2023-05-10T01:55:55;1.37;;;1.27;;
32786;SDS011;19139;49.372;8.580;2023-05-10T01:58:28;1.37;;;1.27;;
32786;SDS011;19139;49.372;8.580;2023-05-10T02:00:58;1.57;;;1.47;;
32786;SDS011;19139;49.372;8.580;2023-05-10T02:03:27;1.40;;;1.30;;
32786;SDS011;19139;49.372;8.580;2023-05-10T02:05:57;1.80;;;1.70;;
32786;SDS011;19139;49.372;8.580;2023-05-10T02:08:24;1.73;;;1.63;;
32786;SDS011;19139;49.372;8.580;2023-05-10T02:10:54;1.43;;;1.33;;
32786;SDS011;19139;49.372;8.580;2023-05-10T02:13:27;1.80;;;1.50;;
32786;SDS011;19139;49.372;8.580;2023-05-10T02:15:55;1.53;;;1.20;;
32786;SDS011;19139;49.372;8.580;2023-05-10T02:18:23;1.43;;;1.33;;
32786;SDS011;19139;49.372;8.580;2023-05-10T02:20:51;1.50;;;1.40;;
32786;SDS011;19139;49.372;8.580;2023-05-10T02:23:20;1.30;;;1.20;;
32786;SDS011;19139;49.372;8.580;2023-05-10T02:25:47;1.70;;;1.60;;
32786;SDS011;19139;49.372;8.580;2023-05-10T02:28:15;1.70;;;1.60;;
32786;SDS011;19139;49.372;8.580;2023-05-10T02:30:44;1.30;;;1.20;;
32786;SDS011;19139;49.372;8.580;2023-05-10T02:33:11;1.40;;;1.30;;
32786;SDS011;19139;49.372;8.580;2023-05-10T02:35:43;1.30;;;1.20;;
32786;SDS011;19139;49.372;8.580;2023-05-10T02:38:15;1.20;;;1.10;;
32786;SDS011;19139;49.372;8.580;2023-05-10T02:40:47;1.60;;;1.50;;
32786;SDS011;19139;49.372;8.580;2023-05-10T02:43:19;1.37;;;1.27;;
32786;SDS011;19139;49.372;8.580;2023-05-10T02:45:49;1.40;;;1.30;;
32786;SDS011;19139;49.372;8.580;2023-05-10T02:48:21;1.20;;;1.10;;
32786;SDS011;19139;49.372;8.580;2023-05-10T02:50:47;1.30;;;1.20;;
32786;SDS011;19139;49.372;8.580;2023-05-10T02:53:23;1.63;;;1.20;;
32786;SDS011;19139;49.372;8.580;2023-05-10T02:56:01;0.93;;;0.93;;
32786;SDS011;19139;49.372;8.580;2023-05-10T02:58:38;1.50;;;1.40;;
32786;SDS011;19139;49.372;8.580;2023-05-10T03:01:04;1.20;;;1.10;;
32786;SDS011;19139;49.372;8.580;2023-05-10T03:03:33;1.30;;;1.20;;
32786;SDS011;19139;49.372;8.580;2023-05-10T03:06:05;1.23;;;1.13;;
32786;SDS011;19139;49.372;8.580;2023-05-10T03:08:36;1.40;;;1.30;;
32786;SDS011;19139;49.372;8.580;2023-05-10T03:11:12;1.03;;;1.00;;
32786;SDS011;19139;49.372;8.580;2023-05-10T03:13:52;1.93;;;1.40;;
32786;SDS011;19139;49.372;8.580;2023-05-10T03:16:47;1.20;;;1.10;;
32786;SDS011;19139;49.372;8.580;2023-05-10T03:19:31;1.40;;;1.30;;
32786;SDS011;19139;49.372;8.580;2023-05-10T03:22:11;1.20;;;1.10;;
32786;SDS011;19139;49.372;8.580;2023-05-10T03:24:46;1.13;;;1.10;;
32786;SDS011;19139;49.372;8.580;2023-05-10T03:27:19;1.27;;;1.17;;
32786;SDS011;19139;49.372;8.580;2023-05-10T03:29:53;1.27;;;1.17;;
32786;SDS011;19139;49.372;8.580;2023-05-10T03:32:26;1.10;;;1.00;;
32786;SDS011;19139;49.372;8.580;2023-05-10T03:34:56;1.10;;;1.00;;
32786;SDS011;19139;49.372;8.580;2023-05-10T03:37:27;1.33;;;1.17;;
32786;SDS011;19139;49.372;8.580;2023-05-10T03:39:59;1.20;;;1.10;;
32786;SDS011;19139;49.372;8.580;2023-05-10T03:42:30;1.20;;;1.10;;
32786;SDS011;19139;49.372;8.580;2023-05-10T03:45:02;1.20;;;1.10;;
32786;SDS011;19139;49.372;8.580;2023-05-10T03:47:29;1.07;;;1.07;;
32786;SDS011;19139;49.372;8.580;2023-05-10T03:49:55;1.20;;;1.10;;
32786;SDS011;19139;49.372;8.580;2023-05-10T03:52:27;1.20;;;1.10;;
32786;SDS011;19139;49.372;8.580;2023-05-10T03:54:58;1.57;;;1.20;;
32786;SDS011;19139;49.372;8.580;2023-05-10T03:57:25;1.10;;;1.00;;
32786;SDS011;19139;49.372;8.580;2023-05-10T03:59:56;1.30;;;1.20;;
32786;SDS011;19139;49.372;8.580;2023-05-10T04:02:28;1.00;;;1.00;;
32786;SDS011;19139;49.372;8.580;2023-05-10T04:05:00;0.90;;;0.90;;
32786;SDS011;19139;49.372;8.580;2023-05-10T04:07:27;1.23;;;1.13;;
32786;SDS011;19139;49.372;8.580;2023-05-10T04:09:54;1.40;;;1.30;;
32786;SDS011;19139;49.372;8.580;2023-05-10T04:12:26;1.17;;;1.07;;
32786;SDS011;19139;49.372;8.580;2023-05-10T04:14:57;1.60;;;1.50;;
32786;SDS011;19139;49.372;8.580;2023-05-10T04:17:28;1.13;;;1.00;;
32786;SDS011;19139;49.372;8.580;2023-05-10T04:19:55;0.93;;;0.83;;
32786;SDS011;19139;49.372;8.580;2023-05-10T04:22:27;1.20;;;1.10;;
32786;SDS011;19139;49.372;8.580;2023-05-10T04:24:55;1.10;;;1.00;;
32786;SDS011;19139;49.372;8.580;2023-05-10T04:27:21;1.07;;;1.00;;
32786;SDS011;19139;49.372;8.580;2023-05-10T04:29:48;1.10;;;1.10;;
32786;SDS011;19139;49.372;8.580;2023-05-10T04:32:14;1.00;;;1.00;;
32786;SDS011;19139;49.372;8.580;2023-05-10T04:34:43;0.83;;;0.83;;
32786;SDS011;19139;49.372;8.580;2023-05-10T04:37:09;1.03;;;1.00;;
32786;SDS011;19139;49.372;8.580;2023-05-10T04:39:36;1.10;;;1.00;;
32786;SDS011;19139;49.372;8.580;2023-05-10T04:42:04;1.13;;;1.03;;
32786;SDS011;19139;49.372;8.580;2023-05-10T04:44:32;1.07;;;0.97;;
32786;SDS011;19139;49.372;8.580;2023-05-10T04:46:58;0.90;;;0.90;;
32786;SDS011;19139;49.372;8.580;2023-05-10T04:49:26;0.93;;;0.93;;
32786;SDS011;19139;49.372;8.580;2023-05-10T04:51:52;0.90;;;0.90;;
32786;SDS011;19139;49.372;8.580;2023-05-10T04:54:19;1.07;;;0.97;;
32786;SDS011;19139;49.372;8.580;2023-05-10T04:56:50;1.70;;;1.60;;
32786;SDS011;19139;49.372;8.580;2023-05-10T04:59:17;1.47;;;1.20;;
32786;SDS011;19139;49.372;8.580;2023-05-10T05:01:43;1.10;;;1.00;;
32786;SDS011;19139;49.372;8.580;2023-05-10T05:04:10;0.97;;;0.97;;
32786;SDS011;19139;49.372;8.580;2023-05-10T05:06:37;1.27;;;1.17;;
32786;SDS011;19139;49.372;8.580;2023-05-10T05:09:04;1.33;;;1.23;;
32786;SDS011;19139;49.372;8.580;2023-05-10T05:11:30;1.00;;;0.90;;
32786;SDS011;19139;49.372;8.580;2023-05-10T05:13:57;1.20;;;1.10;;
32786;SDS011;19139;49.372;8.580;2023-05-10T05:16:25;1.13;;;1.03;;
32786;SDS011;19139;49.372;8.580;2023-05-10T05:18:57;1.10;;;1.10;;
32786;SDS011;19139;49.372;8.580;2023-05-10T05:21:23;1.20;;;1.10;;
32786;SDS011;19139;49.372;8.580;2023-05-10T05:23:52;1.07;;;1.07;;
32786;SDS011;19139;49.372;8.580;2023-05-10T05:26:19;1.80;;;1.27;;
32786;SDS011;19139;49.372;8.580;2023-05-10T05:28:45;1.20;;;1.10;;
32786;SDS011;19139;49.372;8.580;2023-05-10T05:31:19;1.77;;;1.67;;
32786;SDS011;19139;49.372;8.580;2023-05-10T05:33:45;2.10;;;1.60;;
32786;SDS011;19139;49.372;8.580;2023-05-10T05:36:12;2.07;;;1.50;;
32786;SDS011;19139;49.372;8.580;2023-05-10T05:38:39;3.33;;;1.50;;
32786;SDS011;19139;49.372;8.580;2023-05-10T05:41:05;3.87;;;2.00;;
32786;SDS011;19139;49.372;8.580;2023-05-10T05:43:32;2.53;;;1.20;;
32786;SDS011;19139;49.372;8.580;2023-05-10T05:46:01;1.73;;;1.33;;
32786;SDS011;19139;49.372;8.580;2023-05-10T05:48:32;1.90;;;1.47;;
32786;SDS011;19139;49.372;8.580;2023-05-10T05:50:59;2.10;;;1.50;;
32786;SDS011;19139;49.372;8.580;2023-05-10T05:53:25;2.20;;;1.50;;
32786;SDS011;19139;49.372;8.580;2023-05-10T05:55:53;2.77;;;1.30;;
32786;SDS011;19139;49.372;8.580;2023-05-10T05:58:21;3.40;;;1.40;;
32786;SDS011;19139;49.372;8.580;2023-05-10T06:00:48;2.43;;;1.33;;
32786;SDS011;19139;49.372;8.580;2023-05-10T06:03:15;1.90;;;0.90;;
32786;SDS011;19139;49.372;8.580;2023-05-10T06:05:47;1.60;;;1.03;;
32786;SDS011;19139;49.372;8.580;2023-05-10T06:08:14;3.60;;;1.23;;
32786;SDS011;19139;49.372;8.580;2023-05-10T06:10:46;1.80;;;1.40;;
32786;SDS011;19139;49.372;8.580;2023-05-10T06:13:12;2.33;;;1.40;;
32786;SDS011;19139;49.372;8.580;2023-05-10T06:15:44;2.80;;;1.50;;
32786;SDS011;19139;49.372;8.580;2023-05-10T06:18:10;2.20;;;1.17;;
32786;SDS011;19139;49.372;8.580;2023-05-10T06:20:37;1.73;;;1.20;;
32786;SDS011;19139;49.372;8.580;2023-05-10T06:23:08;2.50;;;1.07;;
32786;SDS011;19139;49.372;8.580;2023-05-10T06:25:40;1.63;;;1.20;;
32786;SDS011;19139;49.372;8.580;2023-05-10T06:28:06;2.30;;;1.40;;
32786;SDS011;19139;49.372;8.580;2023-05-10T06:30:38;1.90;;;1.30;;
32786;SDS011;19139;49.372;8.580;2023-05-10T06:33:04;1.80;;;1.10;;
32786;SDS011;19139;49.372;8.580;2023-05-10T06:35:31;1.50;;;1.17;;
32786;SDS011;19139;49.372;8.580;2023-05-10T06:37:59;2.23;;;1.27;;
32786;SDS011;19139;49.372;8.580;2023-05-10T06:40:26;2.43;;;1.60;;
32786;SDS011;19139;49.372;8.580;2023-05-10T06:42:53;2.07;;;1.20;;
32786;SDS011;19139;49.372;8.580;2023-05-10T06:45:19;1.93;;;1.20;;
32786;SDS011;19139;49.372;8.580;2023-05-10T06:47:46;1.60;;;1.27;;
32786;SDS011;19139;49.372;8.580;2023-05-10T06:50:13;1.67;;;1.10;;
32786;SDS011;19139;49.372;8.580;2023-05-10T06:52:40;3.40;;;1.13;;
32786;SDS011;19139;49.372;8.580;2023-05-10T06:55:06;1.73;;;1.20;;
32786;SDS011;19139;49.372;8.580;2023-05-10T06:57:34;1.37;;;1.03;;
32786;SDS011;19139;49.372;8.580;2023-05-10T07:00:01;1.53;;;1.43;;
32786;SDS011;19139;49.372;8.580;2023-05-10T07:02:30;2.17;;;1.20;;
32786;SDS011;19139;49.372;8.580;2023-05-10T07:04:57;1.90;;;0.90;;
32786;SDS011;19139;49.372;8.580;2023-05-10T07:07:28;1.53;;;1.43;;
32786;SDS011;19139;49.372;8.580;2023-05-10T07:09:59;2.00;;;1.30;;
32786;SDS011;19139;49.372;8.580;2023-05-10T07:12:31;1.83;;;1.60;;
32786;SDS011;19139;49.372;8.580;2023-05-10T07:15:03;1.20;;;0.97;;
32786;SDS011;19139;49.372;8.580;2023-05-10T07:17:30;1.77;;;1.43;;
32786;SDS011;19139;49.372;8.580;2023-05-10T07:20:01;1.43;;;1.13;;
32786;SDS011;19139;49.372;8.580;2023-05-10T07:22:29;4.20;;;1.50;;
32786;SDS011;19139;49.372;8.580;2023-05-10T07:25:01;1.60;;;1.30;;
32786;SDS011;19139;49.372;8.580;2023-05-10T07:27:28;1.60;;;1.17;;
32786;SDS011;19139;49.372;8.580;2023-05-10T07:29:54;1.57;;;1.20;;
32786;SDS011;19139;49.372;8.580;2023-05-10T07:32:22;2.00;;;1.20;;
32786;SDS011;19139;49.372;8.580;2023-05-10T07:34:49;2.83;;;1.07;;
32786;SDS011;19139;49.372;8.580;2023-05-10T07:37:15;1.50;;;1.03;;
32786;SDS011;19139;49.372;8.580;2023-05-10T07:39:47;1.60;;;1.03;;
32786;SDS011;19139;49.372;8.580;2023-05-10T07:42:18;3.47;;;1.13;;
32786;SDS011;19139;49.372;8.580;2023-05-10T07:44:45;1.20;;;1.00;;
32786;SDS011;19139;49.372;8.580;2023-05-10T07:47:12;1.60;;;1.10;;
32786;SDS011;19139;49.372;8.580;2023-05-10T07:49:38;2.83;;;1.20;;
32786;SDS011;19139;49.372;8.580;2023-05-10T07:52:05;1.40;;;0.97;;
32786;SDS011;19139;49.372;8.580;2023-05-10T07:54:31;2.43;;;0.93;;
32786;SDS011;19139;49.372;8.580;2023-05-10T07:56:59;1.50;;;1.00;;
32786;SDS011;19139;49.372;8.580;2023-05-10T07:59:26;1.77;;;1.33;;
32786;SDS011;19139;49.372;8.580;2023-05-10T08:01:53;1.50;;;1.40;;
32786;SDS011;19139;49.372;8.580;2023-05-10T08:04:20;2.20;;;1.27;;
32786;SDS011;19139;49.372;8.580;2023-05-10T08:06:47;1.40;;;1.27;;
32786;SDS011;19139;49.372;8.580;2023-05-10T08:09:13;2.70;;;1.40;;
32786;SDS011;19139;49.372;8.580;2023-05-10T08:11:40;1.67;;;1.10;;
32786;SDS011;19139;49.372;8.580;2023-05-10T08:14:07;1.97;;;1.20;;
32786;SDS011;19139;49.372;8.580;2023-05-10T08:16:38;2.63;;;1.07;;
32786;SDS011;19139;49.372;8.580;2023-05-10T08:19:09;1.23;;;0.97;;
32786;SDS011;19139;49.372;8.580;2023-05-10T08:21:36;2.20;;;1.43;;
32786;SDS011;19139;49.372;8.580;2023-05-10T08:24:03;0.90;;;0.80;;
32786;SDS011;19139;49.372;8.580;2023-05-10T08:26:30;1.90;;;1.10;;
32786;SDS011;19139;49.372;8.580;2023-05-10T08:29:03;2.10;;;1.17;;
32786;SDS011;19139;49.372;8.580;2023-05-10T08:31:35;1.10;;;0.90;;
32786;SDS011;19139;49.372;8.580;2023-05-10T08:34:01;1.80;;;1.17;;
32786;SDS011;19139;49.372;8.580;2023-05-10T08:36:28;1.57;;;1.30;;
32786;SDS011;19139;49.372;8.580;2023-05-10T08:38:55;1.90;;;1.40;;
32786;SDS011;19139;49.372;8.580;2023-05-10T08:41:22;1.17;;;0.97;;
32786;SDS011;19139;49.372;8.580;2023-05-10T08:43:53;2.57;;;1.50;;
32786;SDS011;19139;49.372;8.580;2023-05-10T08:46:21;1.80;;;1.10;;
32786;SDS011;19139;49.372;8.580;2023-05-10T08:48:49;1.13;;;1.00;;
32786;SDS011;19139;49.372;8.580;2023-05-10T08:51:17;1.97;;;1.10;;
32786;SDS011;19139;49.372;8.580;2023-05-10T08:53:47;2.63;;;1.07;;
32786;SDS011;19139;49.372;8.580;2023-05-10T08:56:15;1.37;;;1.23;;
32786;SDS011;19139;49.372;8.580;2023-05-10T08:58:42;1.50;;;1.10;;
32786;SDS011;19139;49.372;8.580;2023-05-10T09:01:08;1.20;;;1.00;;
32786;SDS011;19139;49.372;8.580;2023-05-10T09:03:38;1.73;;;1.30;;
32786;SDS011;19139;49.372;8.580;2023-05-10T09:06:10;0.83;;;0.63;;
32786;SDS011;19139;49.372;8.580;2023-05-10T09:08:39;1.23;;;1.10;;
32786;SDS011;19139;49.372;8.580;2023-05-10T09:11:12;0.80;;;0.80;;
32786;SDS011;19139;49.372;8.580;2023-05-10T09:13:44;1.63;;;1.20;;
32786;SDS011;19139;49.372;8.580;2023-05-10T09:16:11;0.80;;;0.80;;
32786;SDS011;19139;49.372;8.580;2023-05-10T09:18:47;1.10;;;0.80;;
32786;SDS011;19139;49.372;8.580;2023-05-10T09:21:13;2.17;;;1.10;;
32786;SDS011;19139;49.372;8.580;2023-05-10T09:23:44;0.77;;;0.77;;
32786;SDS011;19139;49.372;8.580;2023-05-10T09:26:17;1.23;;;1.10;;
32786;SDS011;19139;49.372;8.580;2023-05-10T09:28:52;1.27;;;1.17;;
32786;SDS011;19139;49.372;8.580;2023-05-10T09:34:18;1.57;;;1.10;;
32786;SDS011;19139;49.372;8.580;2023-05-10T09:36:51;2.10;;;1.30;;
32786;SDS011;19139;49.372;8.580;2023-05-10T09:39:19;1.43;;;1.27;;
32786;SDS011;19139;49.372;8.580;2023-05-10T09:41:46;1.10;;;1.00;;
32786;SDS011;19139;49.372;8.580;2023-05-10T09:44:16;1.30;;;1.10;;
32786;SDS011;19139;49.372;8.580;2023-05-10T09:46:48;0.80;;;0.70;;
32786;SDS011;19139;49.372;8.580;2023-05-10T09:49:16;1.30;;;0.90;;
32786;SDS011;19139;49.372;8.580;2023-05-10T09:51:42;0.90;;;0.80;;
32786;SDS011;19139;49.372;8.580;2023-05-10T09:54:10;1.10;;;1.00;;
32786;SDS011;19139;49.372;8.580;2023-05-10T09:56:38;1.00;;;0.90;;
32786;SDS011;19139;49.372;8.580;2023-05-10T09:59:06;1.10;;;1.00;;
32786;SDS011;19139;49.372;8.580;2023-05-10T10:01:37;0.87;;;0.80;;
32786;SDS011;19139;49.372;8.580;2023-05-10T10:04:04;0.80;;;0.80;;
32786;SDS011;19139;49.372;8.580;2023-05-10T10:06:39;0.80;;;0.70;;
32786;SDS011;19139;49.372;8.580;2023-05-10T10:09:06;1.70;;;1.10;;
32786;SDS011;19139;49.372;8.580;2023-05-10T10:11:37;0.73;;;0.73;;
32786;SDS011;19139;49.372;8.580;2023-05-10T10:14:04;1.07;;;0.80;;
32786;SDS011;19139;49.372;8.580;2023-05-10T10:16:31;1.07;;;0.93;;
32786;SDS011;19139;49.372;8.580;2023-05-10T10:18:59;0.97;;;0.70;;
32786;SDS011;19139;49.372;8.580;2023-05-10T10:21:26;1.00;;;0.70;;
32786;SDS011;19139;49.372;8.580;2023-05-10T10:23:58;1.00;;;0.80;;
32786;SDS011;19139;49.372;8.580;2023-05-10T10:26:29;1.23;;;0.70;;
32786;SDS011;19139;49.372;8.580;2023-05-10T10:29:09;1.23;;;0.90;;
32786;SDS011;19139;49.372;8.580;2023-05-10T10:32:06;1.00;;;0.80;;
32786;SDS011;19139;49.372;8.580;2023-05-10T10:34:43;0.80;;;0.80;;
32786;SDS011;19139;49.372;8.580;2023-05-10T10:37:10;1.63;;;1.20;;
32786;SDS011;19139;49.372;8.580;2023-05-10T10:39:36;0.83;;;0.70;;
32786;SDS011;19139;49.372;8.580;2023-05-10T10:42:03;0.67;;;0.67;;
32786;SDS011;19139;49.372;8.580;2023-05-10T10:50:02;1.17;;;1.00;;
32786;SDS011;19139;49.372;8.580;2023-05-10T10:52:31;0.80;;;0.77;;
32786;SDS011;19139;49.372;8.580;2023-05-10T10:55:13;1.13;;;0.90;;
32786;SDS011;19139;49.372;8.580;2023-05-10T11:11:01;1.00;;;0.80;;
32786;SDS011;19139;49.372;8.580;2023-05-10T11:13:39;0.63;;;0.60;;
32786;SDS011;19139;49.372;8.580;2023-05-10T11:16:11;1.57;;;0.90;;
32786;SDS011;19139;49.372;8.580;2023-05-10T11:18:40;0.93;;;0.77;;
32786;SDS011;19139;49.372;8.580;2023-05-10T11:21:08;0.83;;;0.80;;
32786;SDS011;19139;49.372;8.580;2023-05-10T11:26:07;1.87;;;1.10;;
32786;SDS011;19139;49.372;8.580;2023-05-10T11:31:16;0.77;;;0.77;;
32786;SDS011;19139;49.372;8.580;2023-05-10T11:36:24;0.90;;;0.90;;
32786;SDS011;19139;49.372;8.580;2023-05-10T11:38:52;1.07;;;0.70;;
32786;SDS011;19139;49.372;8.580;2023-05-10T11:41:20;0.97;;;0.73;;
32786;SDS011;19139;49.372;8.580;2023-05-10T11:43:50;0.60;;;0.60;;
32786;SDS011;19139;49.372;8.580;2023-05-10T11:46:18;0.60;;;0.60;;
32786;SDS011;19139;49.372;8.580;2023-05-10T11:48:46;0.93;;;0.90;;
32786;SDS011;19139;49.372;8.580;2023-05-10T11:51:19;1.03;;;0.60;;
32786;SDS011;19139;49.372;8.580;2023-05-10T11:53:51;0.70;;;0.70;;
32786;SDS011;19139;49.372;8.580;2023-05-10T11:56:20;1.37;;;0.87;;
32786;SDS011;19139;49.372;8.580;2023-05-10T11:58:52;1.53;;;0.90;;
32786;SDS011;19139;49.372;8.580;2023-05-10T12:01:26;0.87;;;0.70;;
32786;SDS011;19139;49.372;8.580;2023-05-10T12:03:54;1.30;;;0.90;;
32786;SDS011;19139;49.372;8.580;2023-05-10T12:06:29;0.73;;;0.60;;
32786;SDS011;19139;49.372;8.580;2023-05-10T12:08:58;0.70;;;0.70;;
32786;SDS011;19139;49.372;8.580;2023-05-10T12:11:25;0.90;;;0.70;;
32786;SDS011;19139;49.372;8.580;2023-05-10T12:13:53;0.60;;;0.60;;
32786;SDS011;19139;49.372;8.580;2023-05-10T12:16:22;0.60;;;0.50;;
32786;SDS011;19139;49.372;8.580;2023-05-10T12:18:50;0.83;;;0.70;;
32786;SDS011;19139;49.372;8.580;2023-05-10T12:21:19;1.83;;;1.03;;
32786;SDS011;19139;49.372;8.580;2023-05-10T12:23:47;0.80;;;0.60;;
32786;SDS011;19139;49.372;8.580;2023-05-10T12:26:22;0.80;;;0.70;;
32786;SDS011;19139;49.372;8.580;2023-05-10T12:29:00;0.83;;;0.67;;
32786;SDS011;19139;49.372;8.580;2023-05-10T12:31:58;0.77;;;0.50;;
32786;SDS011;19139;49.372;8.580;2023-05-10T12:34:26;0.50;;;0.50;;
32786;SDS011;19139;49.372;8.580;2023-05-10T12:36:56;0.97;;;0.70;;
32786;SDS011;19139;49.372;8.580;2023-05-10T12:39:38;0.67;;;0.60;;
32786;SDS011;19139;49.372;8.580;2023-05-10T12:42:12;1.00;;;0.73;;
32786;SDS011;19139;49.372;8.580;2023-05-10T12:44:43;1.00;;;0.60;;
32786;SDS011;19139;49.372;8.580;2023-05-10T12:47:10;0.90;;;0.70;;
32786;SDS011;19139;49.372;8.580;2023-05-10T12:49:36;0.83;;;0.70;;
32786;SDS011;19139;49.372;8.580;2023-05-10T12:52:04;0.80;;;0.63;;
32786;SDS011;19139;49.372;8.580;2023-05-10T12:54:30;0.70;;;0.70;;
32786;SDS011;19139;49.372;8.580;2023-05-10T12:56:57;0.80;;;0.57;;
32786;SDS011;19139;49.372;8.580;2023-05-10T12:59:23;0.70;;;0.67;;
32786;SDS011;19139;49.372;8.580;2023-05-10T13:01:55;1.20;;;0.80;;
32786;SDS011;19139;49.372;8.580;2023-05-10T13:04:23;0.97;;;0.70;;
32786;SDS011;19139;49.372;8.580;2023-05-10T13:06:49;0.60;;;0.60;;
32786;SDS011;19139;49.372;8.580;2023-05-10T13:09:16;0.87;;;0.63;;
32786;SDS011;19139;49.372;8.580;2023-05-10T13:11:48;0.73;;;0.73;;
32786;SDS011;19139;49.372;8.580;2023-05-10T13:14:15;0.60;;;0.60;;
32786;SDS011;19139;49.372;8.580;2023-05-10T13:16:46;1.13;;;0.83;;
32786;SDS011;19139;49.372;8.580;2023-05-10T13:19:13;0.97;;;0.90;;
32786;SDS011;19139;49.372;8.580;2023-05-10T13:21:46;1.37;;;0.70;;
32786;SDS011;19139;49.372;8.580;2023-05-10T13:24:18;0.80;;;0.53;;
32786;SDS011;19139;49.372;8.580;2023-05-10T13:26:45;0.90;;;0.80;;
32786;SDS011;19139;49.372;8.580;2023-05-10T13:29:11;1.57;;;0.90;;
32786;SDS011;19139;49.372;8.580;2023-05-10T13:31:38;0.93;;;0.80;;
32786;SDS011;19139;49.372;8.580;2023-05-10T13:34:05;1.07;;;0.80;;
32786;SDS011;19139;49.372;8.580;2023-05-10T13:36:32;0.90;;;0.77;;
32786;SDS011;19139;49.372;8.580;2023-05-10T13:38:58;1.03;;;0.87;;
32786;SDS011;19139;49.372;8.580;2023-05-10T13:41:32;0.80;;;0.80;;
32786;SDS011;19139;49.372;8.580;2023-05-10T13:44:04;0.93;;;0.70;;
32786;SDS011;19139;49.372;8.580;2023-05-10T13:46:35;1.20;;;0.80;;
32786;SDS011;19139;49.372;8.580;2023-05-10T13:49:07;1.00;;;0.60;;
32786;SDS011;19139;49.372;8.580;2023-05-10T13:51:34;1.03;;;0.77;;
32786;SDS011;19139;49.372;8.580;2023-05-10T13:54:02;1.00;;;0.80;;
32786;SDS011;19139;49.372;8.580;2023-05-10T13:56:29;0.80;;;0.70;;
32786;SDS011;19139;49.372;8.580;2023-05-10T13:58:56;1.37;;;1.00;;
32786;SDS011;19139;49.372;8.580;2023-05-10T14:01:29;1.63;;;0.90;;
32786;SDS011;19139;49.372;8.580;2023-05-10T14:03:55;1.40;;;0.60;;
32786;SDS011;19139;49.372;8.580;2023-05-10T14:06:22;1.17;;;0.80;;
32786;SDS011;19139;49.372;8.580;2023-05-10T14:08:54;1.20;;;0.90;;
32786;SDS011;19139;49.372;8.580;2023-05-10T14:11:20;1.20;;;0.87;;
32786;SDS011;19139;49.372;8.580;2023-05-10T14:13:49;0.77;;;0.60;;
32786;SDS011;19139;49.372;8.580;2023-05-10T14:16:16;2.33;;;0.80;;
32786;SDS011;19139;49.372;8.580;2023-05-10T14:18:42;0.80;;;0.80;;
32786;SDS011;19139;49.372;8.580;2023-05-10T14:21:09;0.80;;;0.60;;
32786;SDS011;19139;49.372;8.580;2023-05-10T14:23:36;0.80;;;0.60;;
32786;SDS011;19139;49.372;8.580;2023-05-10T14:26:02;0.83;;;0.83;;
32786;SDS011;19139;49.372;8.580;2023-05-10T14:28:29;1.63;;;0.70;;
32786;SDS011;19139;49.372;8.580;2023-05-10T14:30:56;1.37;;;0.80;;
32786;SDS011;19139;49.372;8.580;2023-05-10T14:33:27;0.70;;;0.60;;
32786;SDS011;19139;49.372;8.580;2023-05-10T14:35:59;0.83;;;0.70;;
32786;SDS011;19139;49.372;8.580;2023-05-10T14:38:26;1.10;;;0.73;;
32786;SDS011;19139;49.372;8.580;2023-05-10T14:40:52;0.77;;;0.70;;
32786;SDS011;19139;49.372;8.580;2023-05-10T14:43:19;0.80;;;0.70;;
32786;SDS011;19139;49.372;8.580;2023-05-10T14:45:45;1.07;;;0.83;;
32786;SDS011;19139;49.372;8.580;2023-05-10T14:48:12;0.77;;;0.67;;
32786;SDS011;19139;49.372;8.580;2023-05-10T14:50:42;1.23;;;0.83;;
32786;SDS011;19139;49.372;8.580;2023-05-10T14:53:09;0.80;;;0.77;;
32786;SDS011;19139;49.372;8.580;2023-05-10T14:55:35;1.13;;;0.73;;
32786;SDS011;19139;49.372;8.580;2023-05-10T14:58:02;0.67;;;0.53;;
32786;SDS011;19139;49.372;8.580;2023-05-10T15:00:34;1.00;;;0.70;;
32786;SDS011;19139;49.372;8.580;2023-05-10T15:03:01;0.67;;;0.53;;
32786;SDS011;19139;49.372;8.580;2023-05-10T15:05:28;1.10;;;0.93;;
32786;SDS011;19139;49.372;8.580;2023-05-10T15:07:55;0.70;;;0.53;;
32786;SDS011;19139;49.372;8.580;2023-05-10T15:10:22;1.00;;;0.70;;
32786;SDS011;19139;49.372;8.580;2023-05-10T15:12:49;0.70;;;0.70;;
32786;SDS011;19139;49.372;8.580;2023-05-10T15:15:16;0.87;;;0.80;;
32786;SDS011;19139;49.372;8.580;2023-05-10T15:17:43;1.10;;;0.90;;
32786;SDS011;19139;49.372;8.580;2023-05-10T15:20:10;0.87;;;0.60;;
32786;SDS011;19139;49.372;8.580;2023-05-10T15:22:37;0.80;;;0.60;;
32786;SDS011;19139;49.372;8.580;2023-05-10T15:25:04;0.50;;;0.50;;
32786;SDS011;19139;49.372;8.580;2023-05-10T15:27:31;0.77;;;0.60;;
32786;SDS011;19139;49.372;8.580;2023-05-10T15:29:58;0.70;;;0.60;;
32786;SDS011;19139;49.372;8.580;2023-05-10T15:32:30;0.60;;;0.60;;
32786;SDS011;19139;49.372;8.580;2023-05-10T15:34:57;1.10;;;0.70;;
32786;SDS011;19139;49.372;8.580;2023-05-10T15:37:24;0.70;;;0.70;;
32786;SDS011;19139;49.372;8.580;2023-05-10T15:39:50;1.47;;;0.80;;
32786;SDS011;19139;49.372;8.580;2023-05-10T15:42:17;0.70;;;0.57;;
32786;SDS011;19139;49.372;8.580;2023-05-10T15:44:44;0.90;;;0.60;;